AirNav   Air Wisconsin pilot careers
 
 1484 users online  

X61 Bob White Field Airport
Zellwood, Florida, USA

GOING TO ZELLWOOD?


FAA INFORMATION EFFECTIVE 09 NOVEMBER 2017

Location

FAA Identifier: X61
Lat/Long: 28-44-06.9800N / 081-37-44.8200W
28-44.116333N / 081-37.747000W
28.7352722 / -81.6291167
(estimated)
Elevation: 78 ft. / 24 m (estimated)
Variation: 03W (1985)
From city: 1 mile W of ZELLWOOD, FL
Time zone: UTC -5 (UTC -4 during Daylight Saving Time)
Zip code: 32757

Airport Operations

Airport use: Open to the public
Activation date: 04/1963
Control tower: no
ARTCC: JACKSONVILLE CENTER
FSS: SAINT PETERSBURG FLIGHT SERVICE STATION
NOTAMs facility: PIE (NOTAM-D service available)
Attendance: 0700-DUSK
Wind indicator: yes
Segmented circle: no
Landing fee: yes

Airport Communications

CTAF/UNICOM: 122.8
WX ASOS at LEE (11 nm NW): 134.325 (352-787-1565)
WX ASOS at ORL (19 nm SE): PHONE 407-658-6753

Nearby radio navigation aids

VOR radial/distance  VOR name  Freq  Var
ORLr307/19.3ORLANDO VORTAC112.2000E

 
NDB name  Hdg/Dist  Freq  Var  ID
LEESBURG122/10.633504WLEE .-.. . .
SANFORD267/20.540805WSFB ... ..-. -...

Airport Services

Parking: hangars and tiedowns
Airframe service: MAJOR
Powerplant service: MAJOR
Bottled oxygen: NONE
Bulk oxygen: NONE

Runway Information

Runway 9/27

Dimensions: 3300 x 150 ft. / 1006 x 46 m
Surface: turf, in good condition
Runway edge markings: RY 09 /27 MKD WITH PAILS.
RUNWAY 9  RUNWAY 27
Traffic pattern: leftleft
Displaced threshold: 600 ft.
RY 09/27 DSPLCD THLDS MKD WITH 3 TIRES PAINTED WHITE PERPENDICULAR TO CNTRLN.
270 ft.
Obstructions: 6 ft. brush, 2 ft. from runway, 6 ft. right of centerline
RY 09 APCH RATIO 20:1 FROM DSPLCD THLD DUE TO 47 FT TREE; 125 FT R OF CNTRLN; 330 FT FROM END OF RY.
10 ft. road
RY 27 APCH RATIO 25:1 FROM DSPLCD THLD.

Airport Ownership and Management from official FAA records

Ownership: Privately-owned
Owner: TAILWHEEL HOLDING COMPANY
P.O. BOX 494, 7011 JONES AVENUE
ZELLWOOD, FL 32798-0494
Phone 407-884-4809
CONTACT PERSON: PETER COUNSELL 407-884-4809
Manager: PETER COUNSELL
PO BOX 494, 7011 JONES AVENUE
ZELLWOOD, FL 32796
Phone 407-884-4809
AIRPORT PHYSICAL ADDRESS: 7011 WEST JONES AVENUE, ZELLWOOD, FL 32798

Airport Operational Statistics

Aircraft based on the field: 76
Single engine airplanes: 74
Multi engine airplanes: 2
    
Aircraft operations: avg 55/day *
60% local general aviation
40% transient general aviation
* for 12-month period ending 05 October 2016

Additional Remarks

75 FT TREES 75 FT L OF RY 27 END.
TWY NORTH SIDE, NO BACKTAXI ON RY.

Instrument Procedures

There are no published instrument procedures at X61.

Some nearby airports with instrument procedures:

X04 - Orlando Apopka Airport (3 nm SE)
KLEE - Leesburg International Airport (11 nm NW)
X23 - Umatilla Municipal Airport (11 nm N)
KORL - Executive Airport (19 nm SE)
KSFB - Orlando Sanford International Airport (21 nm E)
 
Loc | Ops | Rwys | IFR | FBO | Links
Com | Nav | Svcs | Stats | Notes


 
Area around X61 (Bob White Field Airport)
 
Road maps at: MapQuest Bing Google
 
Aerial photo
WARNING: Photo may not be current or correct
Aerial photo of X61 (Bob White Field Airport)
Photo courtesy of AirNav, LLC
Photo taken 03-Feb-2013
looking east.

Do you have a better or more recent aerial photo of Bob White Field Airport that you would like to share? If so, please send us your photo.

 
Sectional chart

 
Airport distance calculator
Flying to Bob White Field Airport? Find the distance to fly.

From to X61

Sunrise and sunset
Times for 20-Nov-2017
 Local
(UTC-5)
 Zulu
(UTC)
Morning civil twilight06:2911:29
Sunrise06:5411:54
Sunset17:3022:30
Evening civil twilight17:5522:55

Current date and time
Zulu (UTC)  20-Nov-2017 20:00:45
Local (UTC-5)  20-Nov-2017 15:00:45
 
METAR
KLEE 
11nm NW 
201953Z 09008KT 10SM FEW050 24/13 A3010 RMK AO2 SLP190 T02440128
KVVG 
17nm NW 
201930Z AUTO 10011G19KT 5SM HZ 25/13 A2999 RMK A01
KORL 
19nm SE 
201953Z 08014KT 10SM BKN050 23/14 A3009 RMK AO2 SLP192 T02330139
KSFB 
22nm E 
201953Z 08013KT 10SM CLR 24/13 A3009 RMK AO2 SLP190 T02440128
TAF
KLEE 
11nm NW 
201746Z 2018/2118 08011KT P6SM FEW050 SCT250 FM210000 06005KT P6SM SCT045 FM210600 05004KT P6SM BKN050 FM211400 08005KT P6SM VCSH BKN050 OVC080 FM211700 12007KT 4SM SHRA BKN035 OVC050
NOTAMs
Click for the latest NOTAMs
NOTAMs are issued by the DoD/FAA and will open in a separate window not controlled by AirNav.

 

 
 

Would you like to see your business listed on this page?

 If your business provides an interesting product or service to pilots, flight crews, aircraft, or users of the Bob White Field Airport, you should consider listing it here.  To start the listing process, click on the button below
 
Add a business
 

Other Pages about Bob White Field Airport

Update a link
 
Copyright © AirNav, LLC. All rights reserved. Privacy Policy  Contact